createdAt,value
2022-08-18T00:02:28.827Z,12.38
2022-08-18T00:05:02.946Z,10.55
2022-08-18T00:07:38.535Z,14.55
2022-08-18T00:10:18.811Z,12.65
2022-08-18T00:12:52.324Z,14.35
2022-08-18T00:15:31.344Z,22.70
2022-08-18T00:18:14.557Z,22.27
2022-08-18T00:20:47.756Z,13.35
2022-08-18T00:23:20.448Z,19.98
2022-08-18T00:25:53.012Z,29.88
2022-08-18T00:28:25.561Z,29.30
2022-08-18T00:30:58.444Z,37.75
2022-08-18T00:33:31.077Z,48.05
2022-08-18T00:36:03.823Z,60.60
2022-08-18T00:38:36.406Z,62.83
2022-08-18T00:41:09.535Z,60.80
2022-08-18T00:43:48.859Z,53.63
2022-08-18T00:46:29.180Z,51.53
2022-08-18T00:49:02.464Z,51.20
2022-08-18T00:51:45.235Z,46.30
2022-08-18T00:54:22.991Z,43.70
2022-08-18T00:57:00.257Z,43.50
2022-08-18T00:59:58.191Z,37.38
2022-08-18T01:02:41.675Z,32.78
2022-08-18T01:05:57.352Z,28.90
2022-08-18T01:08:30.306Z,29.70
2022-08-18T01:11:04.805Z,33.70
2022-08-18T01:13:40.154Z,25.80
2022-08-18T01:16:31.117Z,19.90
2022-08-18T01:19:22.032Z,25.63
2022-08-18T01:22:02.801Z,26.25
2022-08-18T01:24:57.705Z,27.40
2022-08-18T01:27:33.472Z,26.17
2022-08-18T01:30:13.591Z,17.85
2022-08-18T01:32:47.440Z,21.75
2022-08-18T01:35:22.442Z,20.08
2022-08-18T01:37:56.483Z,18.85
2022-08-18T01:41:17.569Z,20.05
2022-08-18T01:43:22.499Z,18.95
2022-08-18T01:45:55.079Z,16.60
2022-08-18T01:48:27.705Z,13.88
2022-08-18T01:51:00.706Z,22.48
2022-08-18T01:53:33.431Z,10.60
2022-08-18T01:56:07.001Z,11.70
2022-08-18T01:58:39.642Z,20.85
2022-08-18T02:01:14.055Z,13.23
2022-08-18T02:03:51.528Z,15.07
2022-08-18T02:06:32.353Z,15.50
2022-08-18T02:09:06.992Z,12.23
2022-08-18T02:11:40.106Z,12.05
2022-08-18T02:14:12.681Z,8.07
2022-08-18T02:16:45.525Z,12.35
2022-08-18T02:19:18.001Z,10.50
2022-08-18T02:21:50.800Z,11.95
2022-08-18T02:24:23.620Z,14.25
2022-08-18T02:26:56.250Z,7.63
2022-08-18T02:29:28.790Z,8.65
2022-08-18T02:32:01.509Z,14.32
2022-08-18T02:34:34.038Z,12.65
2022-08-18T02:37:07.475Z,8.80
2022-08-18T02:39:41.206Z,15.75
2022-08-18T02:42:16.182Z,9.07
2022-08-18T02:44:48.731Z,6.07
2022-08-18T02:47:24.395Z,7.65
2022-08-18T02:49:56.858Z,8.10
2022-08-18T02:52:35.133Z,8.43
2022-08-18T02:55:08.365Z,8.80
2022-08-18T02:57:50.512Z,8.52
2022-08-18T03:00:23.399Z,5.60
2022-08-18T03:02:56.096Z,6.55
2022-08-18T03:05:31.786Z,6.00
2022-08-18T03:08:04.403Z,6.65
2022-08-18T03:10:38.394Z,7.47
2022-08-18T03:13:10.958Z,6.07
2022-08-18T03:15:43.931Z,6.35
2022-08-18T03:18:16.700Z,5.43
2022-08-18T03:20:49.239Z,10.10
2022-08-18T03:23:27.022Z,11.30
2022-08-18T03:26:03.034Z,4.65
2022-08-18T03:28:36.173Z,5.30
2022-08-18T03:31:08.962Z,11.25
2022-08-18T03:33:43.805Z,5.20
2022-08-18T03:36:23.179Z,5.25
2022-08-18T03:38:56.722Z,8.70
2022-08-18T03:41:43.718Z,3.53
2022-08-18T03:44:25.007Z,4.68
2022-08-18T03:46:58.873Z,10.15
2022-08-18T03:49:31.478Z,4.10
2022-08-18T03:52:04.263Z,7.40
2022-08-18T03:54:38.269Z,4.30
2022-08-18T03:57:13.106Z,5.18
2022-08-18T03:59:45.778Z,4.28
2022-08-18T04:02:19.621Z,6.10
2022-08-18T04:04:52.675Z,5.93
2022-08-18T04:07:25.605Z,8.38
2022-08-18T04:09:58.202Z,4.40
2022-08-18T04:12:31.800Z,4.90
2022-08-18T04:15:05.040Z,7.65
2022-08-18T04:18:06.012Z,6.70
2022-08-18T04:20:31.245Z,5.75
2022-08-18T04:23:04.689Z,3.65
2022-08-18T04:25:37.370Z,8.32
2022-08-18T04:28:09.869Z,3.38
2022-08-18T04:30:42.351Z,4.68
2022-08-18T04:33:14.952Z,4.10
2022-08-18T04:35:48.396Z,3.50
2022-08-18T04:38:21.096Z,3.30
2022-08-18T04:40:53.943Z,3.50
2022-08-18T04:43:26.566Z,6.00
2022-08-18T04:46:05.716Z,7.40
2022-08-18T04:48:42.321Z,3.10
2022-08-18T04:52:39.073Z,5.80
2022-08-18T04:54:11.213Z,4.97
2022-08-18T04:56:43.785Z,2.95
2022-08-18T04:59:16.850Z,2.70
2022-08-18T05:01:49.561Z,4.30
2022-08-18T05:04:22.076Z,5.18
2022-08-18T05:06:54.924Z,6.00
2022-08-18T05:09:28.421Z,4.85
2022-08-18T05:12:01.736Z,2.67
2022-08-18T05:14:35.240Z,3.20
2022-08-18T05:17:07.829Z,5.28
2022-08-18T05:19:44.161Z,4.57
2022-08-18T05:22:22.365Z,5.90
2022-08-18T05:25:01.685Z,2.80
2022-08-18T05:27:39.399Z,4.03
2022-08-18T05:30:13.333Z,3.10
2022-08-18T05:32:50.300Z,2.50
2022-08-18T05:35:32.712Z,3.63
2022-08-18T05:38:23.580Z,2.67
2022-08-18T05:41:21.959Z,3.13
2022-08-18T05:43:54.844Z,5.05
2022-08-18T05:46:56.019Z,3.65
2022-08-18T05:49:30.002Z,3.30
2022-08-18T05:52:10.362Z,2.58
2022-08-18T05:55:08.712Z,3.08
2022-08-18T05:57:47.383Z,2.72
2022-08-18T06:00:22.679Z,3.03
2022-08-18T06:02:58.417Z,2.33
2022-08-18T06:05:36.830Z,2.15
2022-08-18T06:08:15.260Z,3.00
2022-08-18T06:10:51.963Z,2.28
2022-08-18T06:13:24.757Z,3.45
2022-08-18T06:16:10.017Z,2.42
2022-08-18T06:19:11.469Z,5.18
2022-08-18T06:22:10.132Z,2.20
2022-08-18T06:25:00.807Z,3.40
2022-08-18T06:27:51.708Z,2.78
2022-08-18T06:30:27.595Z,2.20
2022-08-18T06:33:15.907Z,2.30
2022-08-18T06:35:54.025Z,11.65
2022-08-18T06:39:03.117Z,3.20
2022-08-18T06:41:50.156Z,3.45
2022-08-18T06:45:03.196Z,2.95
2022-08-18T06:47:44.653Z,2.78
2022-08-18T06:50:34.366Z,2.60
2022-08-18T06:53:18.840Z,11.90
2022-08-18T06:56:00.296Z,2.25
2022-08-18T06:58:35.991Z,5.82
2022-08-18T07:01:09.620Z,6.15
2022-08-18T07:03:56.394Z,6.32
2022-08-18T07:06:32.894Z,9.52
2022-08-18T07:09:27.105Z,6.40
2022-08-18T07:12:08.105Z,6.57
2022-08-18T07:14:56.656Z,5.00
2022-08-18T07:17:43.217Z,3.40
2022-08-18T07:20:26.682Z,5.13
2022-08-18T07:23:03.046Z,23.85
2022-08-18T07:25:45.147Z,7.65
2022-08-18T07:28:38.620Z,9.07
2022-08-18T07:31:18.204Z,5.95
2022-08-18T07:34:03.218Z,6.68
2022-08-18T07:36:42.721Z,3.65
2022-08-18T07:40:01.256Z,6.18
2022-08-18T07:42:54.023Z,3.88
2022-08-18T07:45:30.955Z,4.32
2022-08-18T07:48:34.343Z,4.00
2022-08-18T07:51:17.771Z,4.10
2022-08-18T07:54:20.262Z,4.85
2022-08-18T07:57:20.500Z,3.53
2022-08-18T08:03:28.074Z,4.70
2022-08-18T08:06:06.568Z,4.65
2022-08-18T08:08:54.547Z,5.40
2022-08-18T08:11:48.568Z,7.15
2022-08-18T08:14:53.529Z,5.70
2022-08-18T08:17:38.339Z,7.63
2022-08-18T08:20:45.622Z,5.75
2022-08-18T08:24:07.436Z,6.10
2022-08-18T08:26:46.471Z,7.15
2022-08-18T08:29:47.539Z,10.30
2022-08-18T08:32:34.140Z,7.03
2022-08-18T08:35:49.706Z,6.75
2022-08-18T08:38:40.186Z,8.52
2022-08-18T08:41:27.249Z,6.95
2022-08-18T08:44:05.861Z,7.35
2022-08-18T08:47:09.865Z,12.80
2022-08-18T08:49:55.953Z,16.30
2022-08-18T08:52:40.501Z,10.30
2022-08-18T08:55:17.458Z,12.48
2022-08-18T08:58:02.065Z,7.80
2022-08-18T09:00:35.282Z,10.95
2022-08-18T09:03:30.241Z,16.25
2022-08-18T09:06:16.722Z,9.80
2022-08-18T09:09:01.518Z,9.90
2022-08-18T09:12:09.294Z,15.13
2022-08-18T09:15:11.581Z,12.48
2022-08-18T09:17:47.163Z,14.27
2022-08-18T09:20:50.371Z,10.40
2022-08-18T09:23:28.544Z,13.57
2022-08-18T09:26:22.461Z,13.88
2022-08-18T09:29:15.531Z,17.70
2022-08-18T09:31:48.946Z,12.88
2022-08-18T09:34:56.450Z,21.40
2022-08-18T09:37:41.343Z,23.80
2022-08-18T09:43:42.287Z,23.17
2022-08-18T09:46:45.754Z,15.38
2022-08-18T09:49:27.524Z,19.75
2022-08-18T09:54:51.586Z,17.48
2022-08-18T09:57:29.980Z,23.92
2022-08-18T10:00:15.766Z,15.02
2022-08-18T10:02:51.549Z,24.95
2022-08-18T10:05:32.900Z,16.73
2022-08-18T10:08:07.075Z,17.40
2022-08-18T10:10:59.116Z,21.02
2022-08-18T10:14:06.527Z,14.15
2022-08-18T10:20:23.930Z,13.73
2022-08-18T10:23:00.366Z,18.83
2022-08-18T10:25:48.414Z,13.55
2022-08-18T10:28:54.597Z,13.15
2022-08-18T10:31:29.449Z,15.02
2022-08-18T10:34:16.635Z,18.83
2022-08-18T10:37:02.397Z,14.57
2022-08-18T10:39:41.700Z,18.55
2022-08-18T10:42:30.913Z,15.60
2022-08-18T10:45:32.180Z,21.00
2022-08-18T10:48:26.766Z,20.02
2022-08-18T10:51:58.020Z,21.70
2022-08-18T10:54:39.151Z,18.38
2022-08-18T10:57:33.635Z,26.58
2022-08-18T11:00:20.828Z,17.10
2022-08-18T11:03:52.245Z,28.48
2022-08-18T11:06:22.751Z,19.70
2022-08-18T11:09:03.541Z,14.88
2022-08-18T11:11:52.822Z,15.05
2022-08-18T11:18:42.816Z,17.63
2022-08-18T11:30:03.512Z,22.40
2022-08-18T11:32:42.688Z,15.02
2022-08-18T11:35:46.161Z,21.00
2022-08-18T11:38:23.663Z,17.85
2022-08-18T11:41:21.221Z,18.15
2022-08-18T11:44:06.456Z,19.70
2022-08-18T11:46:42.830Z,19.55
2022-08-18T11:49:35.776Z,18.10
2022-08-18T11:52:26.325Z,15.25
2022-08-18T11:58:00.778Z,14.05
2022-08-18T12:03:51.946Z,19.98
2022-08-18T12:06:29.799Z,16.08
2022-08-18T12:09:54.106Z,22.05
2022-08-18T12:15:23.881Z,13.65
2022-08-18T12:17:56.821Z,14.15
2022-08-18T12:20:30.479Z,12.60
2022-08-18T12:23:03.545Z,15.77
2022-08-18T12:25:38.844Z,16.70
2022-08-18T12:28:11.643Z,14.05
2022-08-18T12:30:44.802Z,17.05
2022-08-18T12:33:17.833Z,14.35
2022-08-18T12:35:59.092Z,14.35
2022-08-18T12:38:36.546Z,12.70
2022-08-18T12:41:13.250Z,12.30
2022-08-18T12:43:45.810Z,16.52
2022-08-18T12:46:32.605Z,15.60
2022-08-18T12:49:12.538Z,13.50
2022-08-18T12:51:50.241Z,13.68
2022-08-18T12:54:25.096Z,17.08
2022-08-18T12:57:00.271Z,10.93
2022-08-18T12:59:37.549Z,12.35
2022-08-18T13:02:12.102Z,9.98
2022-08-18T13:04:44.933Z,72.32
2022-08-18T13:07:20.421Z,34.83
2022-08-18T13:09:54.948Z,22.73
2022-08-18T13:12:27.684Z,17.58
2022-08-18T13:15:01.609Z,24.10
2022-08-18T13:17:34.980Z,12.50
2022-08-18T13:20:17.074Z,21.45
2022-08-18T13:22:50.217Z,21.77
2022-08-18T13:25:32.761Z,8.65
2022-08-18T13:28:11.823Z,15.90
2022-08-18T13:30:47.576Z,15.48
2022-08-18T13:33:35.158Z,10.52
2022-08-18T13:36:13.217Z,14.88
2022-08-18T13:38:46.029Z,8.75
2022-08-18T13:41:18.753Z,9.90
2022-08-18T13:43:56.332Z,11.00
2022-08-18T13:46:31.399Z,9.77
2022-08-18T13:49:04.438Z,14.80
2022-08-18T13:51:37.251Z,8.88
2022-08-18T13:54:35.441Z,13.25
2022-08-18T13:57:04.523Z,7.40
2022-08-18T13:59:37.055Z,9.57
2022-08-18T14:02:19.193Z,9.57
2022-08-18T14:05:02.308Z,7.55
2022-08-18T14:07:35.926Z,8.35
2022-08-18T14:10:10.715Z,7.00
2022-08-18T14:12:47.517Z,9.40
2022-08-18T14:15:22.424Z,6.68
2022-08-18T14:17:56.698Z,8.00
2022-08-18T14:20:50.158Z,5.78
2022-08-18T14:23:43.806Z,6.60
2022-08-18T14:26:43.941Z,9.37
2022-08-18T14:29:17.754Z,6.38
2022-08-18T14:32:13.194Z,6.60
2022-08-18T14:34:59.986Z,6.82
2022-08-18T14:37:35.139Z,7.03
2022-08-18T14:40:12.345Z,7.78
2022-08-18T14:42:54.555Z,6.53
2022-08-18T14:45:34.265Z,6.50
2022-08-18T14:48:11.066Z,5.63
2022-08-18T14:50:49.098Z,6.22
2022-08-18T14:53:26.468Z,6.88
2022-08-18T14:56:00.767Z,6.90
2022-08-18T14:58:34.800Z,6.40
2022-08-18T15:01:11.054Z,6.25
2022-08-18T15:03:44.179Z,6.45
2022-08-18T15:06:23.156Z,7.03
2022-08-18T15:09:00.434Z,5.35
2022-08-18T15:11:33.231Z,4.80
2022-08-18T15:14:06.357Z,6.25
2022-08-18T15:16:39.899Z,5.95
2022-08-18T15:19:57.509Z,5.97
2022-08-18T15:22:23.079Z,5.07
2022-08-18T15:25:13.761Z,5.43
2022-08-18T15:27:46.367Z,5.53
2022-08-18T15:30:24.925Z,4.82
2022-08-18T15:33:03.205Z,5.97
2022-08-18T15:35:36.619Z,4.82
2022-08-18T15:38:16.669Z,6.82
2022-08-18T15:40:53.826Z,4.68
2022-08-18T15:43:33.184Z,5.43
2022-08-18T15:46:07.557Z,5.47
2022-08-18T15:48:41.133Z,5.82
2022-08-18T15:51:13.673Z,5.20
2022-08-18T15:53:50.445Z,5.57
2022-08-18T15:56:26.400Z,7.55
2022-08-18T15:59:00.618Z,6.32
2022-08-18T16:01:33.572Z,5.65
2022-08-18T16:04:10.525Z,10.20
2022-08-18T16:06:46.587Z,5.93
2022-08-18T16:09:19.368Z,8.35
2022-08-18T16:11:51.851Z,6.25
2022-08-18T16:14:24.651Z,6.50
2022-08-18T16:17:01.810Z,5.85
2022-08-18T16:19:34.746Z,5.60
2022-08-18T16:22:08.902Z,6.00
2022-08-18T16:24:41.946Z,8.05
2022-08-18T16:27:14.504Z,7.07
2022-08-18T16:29:50.327Z,8.38
2022-08-18T16:32:23.845Z,5.43
2022-08-18T16:34:56.358Z,8.55
2022-08-18T16:37:29.291Z,20.88
2022-08-18T16:40:02.237Z,16.98
2022-08-18T16:42:35.069Z,24.15
2022-08-18T16:45:08.511Z,5.70
2022-08-18T16:47:44.528Z,5.35
2022-08-18T16:50:19.862Z,10.15
2022-08-18T16:52:53.629Z,5.95
2022-08-18T16:55:28.369Z,10.35
2022-08-18T16:58:19.318Z,10.27
2022-08-18T17:01:14.920Z,6.18
2022-08-18T17:04:13.568Z,6.95
2022-08-18T17:06:53.606Z,7.97
2022-08-18T17:09:27.702Z,6.40
2022-08-18T17:12:00.207Z,8.75
2022-08-18T17:14:34.114Z,18.60
2022-08-18T17:17:07.718Z,5.78
2022-08-18T17:19:40.393Z,5.35
2022-08-18T17:22:13.877Z,7.95
2022-08-18T17:24:49.661Z,10.18
2022-08-18T17:27:37.401Z,5.18
2022-08-18T17:30:17.646Z,9.88
2022-08-18T17:33:00.203Z,7.05
2022-08-18T17:35:42.793Z,5.28
2022-08-18T17:38:15.210Z,4.87
2022-08-18T17:40:51.270Z,4.82
2022-08-18T17:43:26.035Z,4.97
2022-08-18T17:46:03.144Z,4.95
2022-08-18T17:48:49.154Z,5.15
2022-08-18T17:51:44.828Z,7.15
2022-08-18T17:54:43.421Z,4.82
2022-08-18T17:57:18.066Z,5.10
2022-08-18T18:00:03.877Z,5.07
2022-08-18T18:02:46.502Z,5.65
2022-08-18T18:05:22.457Z,5.25
2022-08-18T18:07:57.103Z,4.63
2022-08-18T18:13:39.294Z,5.13
2022-08-18T18:16:29.005Z,4.90
2022-08-18T18:19:05.910Z,8.20
2022-08-18T18:21:58.881Z,4.60
2022-08-18T18:24:35.824Z,5.72
2022-08-18T18:27:27.997Z,7.03
2022-08-18T18:30:08.815Z,5.95
2022-08-18T18:32:59.035Z,5.40
2022-08-18T18:35:55.080Z,5.43
2022-08-18T18:38:30.357Z,4.53
2022-08-18T18:41:23.187Z,7.75
2022-08-18T18:44:11.410Z,5.57
2022-08-18T18:47:10.983Z,6.78
2022-08-18T18:50:01.951Z,8.75
2022-08-18T18:52:38.352Z,5.30
2022-08-18T18:55:19.745Z,4.57
2022-08-18T18:58:27.351Z,6.00
2022-08-18T19:01:05.160Z,4.97
2022-08-18T19:03:48.464Z,3.80
2022-08-18T19:06:33.385Z,4.18
2022-08-18T19:09:22.182Z,3.60
2022-08-18T19:12:16.219Z,4.00
2022-08-18T19:15:07.464Z,3.58
2022-08-18T19:17:58.196Z,3.65
2022-08-18T19:22:04.853Z,3.38
2022-08-18T19:23:45.787Z,3.22
2022-08-18T19:26:39.700Z,3.90
2022-08-18T19:29:22.222Z,4.45
2022-08-18T19:32:22.283Z,3.40
2022-08-18T19:34:55.817Z,5.47
2022-08-18T19:38:08.927Z,4.13
2022-08-18T19:40:49.153Z,3.40
2022-08-18T19:43:57.286Z,2.95
2022-08-18T19:46:52.173Z,2.85
2022-08-18T19:49:48.434Z,5.32
2022-08-18T19:52:45.894Z,2.92
2022-08-18T19:55:34.844Z,3.60
2022-08-18T19:58:31.199Z,3.00
2022-08-18T20:01:30.621Z,6.13
2022-08-18T20:04:21.368Z,2.95
2022-08-18T20:07:19.358Z,6.10
2022-08-18T20:10:32.668Z,2.80
2022-08-18T20:13:38.392Z,3.38
2022-08-18T20:16:43.772Z,3.05
2022-08-18T20:19:35.285Z,3.08
2022-08-18T20:22:16.448Z,3.75
2022-08-18T20:24:55.629Z,4.47
2022-08-18T20:27:41.682Z,2.58
2022-08-18T20:30:29.029Z,2.38
2022-08-18T20:33:19.040Z,2.55
2022-08-18T20:36:16.360Z,4.78
2022-08-18T20:38:52.730Z,2.30
2022-08-18T20:41:31.530Z,3.47
2022-08-18T20:44:39.399Z,2.40
2022-08-18T20:47:18.008Z,1.73
2022-08-18T20:50:35.033Z,3.58
2022-08-18T20:53:10.423Z,2.53
2022-08-18T20:56:09.385Z,2.50
2022-08-18T20:59:08.863Z,2.83
2022-08-18T21:01:42.366Z,3.08
2022-08-18T21:04:15.144Z,2.70
2022-08-18T21:06:49.868Z,2.50
2022-08-18T21:09:22.942Z,2.30
2022-08-18T21:11:57.347Z,2.90
2022-08-18T21:14:32.221Z,3.33
2022-08-18T21:17:16.723Z,4.05
2022-08-18T21:19:49.270Z,3.38
2022-08-18T21:22:21.916Z,3.42
2022-08-18T21:24:54.465Z,3.70
2022-08-18T21:27:39.568Z,4.00
2022-08-18T21:30:25.709Z,3.50
2022-08-18T21:32:58.214Z,5.10
2022-08-18T21:35:32.650Z,6.32
2022-08-18T21:38:08.720Z,4.55
2022-08-18T21:40:49.405Z,3.65
2022-08-18T21:43:49.151Z,4.35
2022-08-18T21:46:30.938Z,5.22
2022-08-18T21:49:05.851Z,3.80
2022-08-18T21:51:50.517Z,3.90
2022-08-18T21:54:27.183Z,4.20
2022-08-18T21:57:22.928Z,4.30
2022-08-18T22:00:18.597Z,3.33
2022-08-18T22:02:53.528Z,3.90
2022-08-18T22:05:57.767Z,3.72
2022-08-18T22:08:31.182Z,4.00
2022-08-18T22:12:01.196Z,4.13
2022-08-18T22:14:54.994Z,3.55
2022-08-18T22:17:36.463Z,4.00
2022-08-18T22:20:46.230Z,3.65
2022-08-18T22:23:41.005Z,3.80
2022-08-18T22:26:23.807Z,3.85
2022-08-18T22:29:09.723Z,7.13
2022-08-18T22:31:49.664Z,5.13
2022-08-18T22:34:30.468Z,3.60
2022-08-18T22:37:22.833Z,3.80
2022-08-18T22:40:07.190Z,3.30
2022-08-18T22:42:40.538Z,3.80
2022-08-18T22:45:15.324Z,3.40
2022-08-18T22:47:47.799Z,4.53
2022-08-18T22:50:20.834Z,4.28
2022-08-18T22:52:53.606Z,3.92
2022-08-18T22:55:26.311Z,3.88
2022-08-18T22:58:01.389Z,4.88
2022-08-18T23:00:35.840Z,3.20
2022-08-18T23:03:08.525Z,4.03
2022-08-18T23:05:41.042Z,16.08
2022-08-18T23:08:13.646Z,3.83
2022-08-18T23:10:47.901Z,7.88
2022-08-18T23:13:20.619Z,4.20
2022-08-18T23:15:53.153Z,5.03
2022-08-18T23:18:45.954Z,3.55
2022-08-18T23:21:34.221Z,3.80
2022-08-18T23:24:08.592Z,3.92
2022-08-18T23:26:41.799Z,4.70
2022-08-18T23:29:15.728Z,4.00
2022-08-18T23:31:49.804Z,3.63
2022-08-18T23:34:24.923Z,4.03
2022-08-18T23:37:02.380Z,6.05
2022-08-18T23:39:37.382Z,5.85
2022-08-18T23:42:12.745Z,4.10
2022-08-18T23:44:46.191Z,4.03
2022-08-18T23:47:21.237Z,4.13
2022-08-18T23:49:54.840Z,3.58
2022-08-18T23:52:27.635Z,4.70
2022-08-18T23:55:00.104Z,3.42
2022-08-18T23:57:33.049Z,7.35
